Time;durP1;ratioP1;P1;durP2;ratioP2;P2;SDS_P1;SDS_P2;PMS_P1;PMS_P2;Temp;Humidity;BMP_temperature;BMP_pressure;BME280_temperature;BME280_humidity;BME280_pressure;Samples;Min_cycle;Max_cycle;Signal;HPM_P1;HPM_P2
2021/06/15 00:02:27;;;;;;;5.53;5.07;;;18.30;96.90;;;;;;4829405;29;20470;-80
2021/06/15 00:04:53;;;;;;;5.50;5.00;;;18.30;96.90;;;;;;4830181;29;20465;-79
2021/06/15 00:07:20;;;;;;;5.60;5.20;;;18.20;97.00;;;;;;4830336;29;20996;-79
2021/06/15 00:09:49;;;;;;;6.43;5.83;;;18.20;97.20;;;;;;4831101;29;20490;-79
2021/06/15 00:12:16;;;;;;;6.10;5.70;;;18.20;97.40;;;;;;4830784;29;20461;-79
2021/06/15 00:14:43;;;;;;;4.83;4.43;;;18.20;97.60;;;;;;4830069;29;20499;-80
2021/06/15 00:17:10;;;;;;;5.90;5.30;;;18.10;97.90;;;;;;4829377;29;20505;-79
2021/06/15 00:19:38;;;;;;;8.83;5.37;;;18.10;97.90;;;;;;4830187;29;20837;-78
2021/06/15 00:22:05;;;;;;;7.33;5.67;;;18.00;97.90;;;;;;4829252;29;20473;-80
2021/06/15 00:24:32;;;;;;;6.33;4.40;;;18.00;98.00;;;;;;4829759;29;20462;-79
2021/06/15 00:26:59;;;;;;;5.93;4.90;;;17.90;98.20;;;;;;4828884;29;20480;-79
2021/06/15 00:29:26;;;;;;;5.83;5.27;;;17.80;98.30;;;;;;4828951;29;20487;-80
2021/06/15 00:31:52;;;;;;;5.73;5.33;;;17.80;98.50;;;;;;4829043;29;20838;-80
2021/06/15 00:34:19;;;;;;;6.23;5.63;;;17.80;98.70;;;;;;4829153;29;20498;-80
2021/06/15 00:36:47;;;;;;;5.77;5.27;;;17.70;98.70;;;;;;4828799;29;20466;-79
2021/06/15 00:39:14;;;;;;;6.40;5.80;;;17.70;99.20;;;;;;4828635;29;20488;-80
2021/06/15 00:41:41;;;;;;;5.50;5.10;;;17.70;99.30;;;;;;4828970;29;20467;-80
2021/06/15 00:44:09;;;;;;;6.50;5.90;;;17.70;99.50;;;;;;4828869;29;20466;-80
2021/06/15 00:46:36;;;;;;;6.20;5.70;;;17.60;99.60;;;;;;4828936;29;20875;-79
2021/06/15 00:49:03;;;;;;;6.23;5.63;;;17.60;99.80;;;;;;4828626;29;20489;-80
2021/06/15 00:51:29;;;;;;;6.43;5.73;;;17.50;99.90;;;;;;4828369;29;20473;-80
2021/06/15 00:53:57;;;;;;;7.20;5.60;;;17.50;99.90;;;;;;4828354;29;21214;-80
2021/06/15 00:56:24;;;;;;;4.50;4.20;;;17.50;99.90;;;;;;4828675;29;20467;-80
2021/06/15 00:58:51;;;;;;;5.40;5.10;;;17.50;99.90;;;;;;4828961;29;20485;-80
2021/06/15 01:01:18;;;;;;;6.50;6.00;;;17.40;99.90;;;;;;4828290;29;20462;-80
2021/06/15 01:03:46;;;;;;;6.87;6.20;;;17.30;99.90;;;;;;4827493;29;20497;-80
2021/06/15 01:06:16;;;;;;;7.33;6.07;;;17.30;99.90;;;;;;4828324;29;20477;-80
2021/06/15 01:08:48;;;;;;;7.17;6.30;;;17.30;99.90;;;;;;4828236;29;20491;-80
2021/06/15 01:11:26;;;;;;;6.73;5.80;;;17.30;99.90;;;;;;4811971;29;20457;-80
2021/06/15 01:14:06;;;;;;;6.13;5.53;;;17.30;99.90;;;;;;4828982;29;20479;-79
2021/06/15 01:16:36;;;;;;;6.73;5.70;;;17.20;99.90;;;;;;4827630;29;20465;-80
2021/06/15 01:19:13;;;;;;;5.43;5.00;;;17.20;99.90;;;;;;4828049;29;20476;-80
2021/06/15 01:21:54;;;;;;;6.00;5.57;;;17.10;99.90;;;;;;4828341;29;20453;-79
2021/06/15 01:24:32;;;;;;;6.20;5.60;;;17.10;99.90;;;;;;4828320;29;20460;-80
2021/06/15 01:27:32;;;;;;;7.23;6.60;;;17.10;99.90;;;;;;4827915;29;20469;-80
2021/06/15 01:30:03;;;;;;;6.97;6.37;;;17.00;99.90;;;;;;4827667;29;20532;-80
2021/06/15 01:32:32;;;;;;;6.03;5.60;;;17.00;99.90;;;;;;4827751;29;20554;-80
2021/06/15 01:35:00;;;;;;;6.37;5.30;;;16.90;99.90;;;;;;4827684;29;20501;-80
2021/06/15 01:37:31;;;;;;;7.53;5.93;;;16.90;99.90;;;;;;4828093;29;20559;-80
2021/06/15 01:39:59;;;;;;;5.97;5.57;;;16.90;99.90;;;;;;4828376;29;20482;-79
2021/06/15 01:42:31;;;;;;;5.73;5.23;;;16.80;99.90;;;;;;4827714;29;20461;-80
2021/06/15 01:45:06;;;;;;;5.87;5.27;;;16.80;99.90;;;;;;4827562;29;20445;-80
2021/06/15 01:47:33;;;;;;;6.07;5.47;;;16.80;99.90;;;;;;4827888;29;20532;-80
2021/06/15 01:50:04;;;;;;;6.97;6.37;;;16.80;99.90;;;;;;4836736;29;20487;-79
2021/06/15 01:52:35;;;;;;;6.47;5.80;;;16.70;99.90;;;;;;4837658;29;20894;-79
2021/06/15 01:55:03;;;;;;;5.97;5.43;;;16.70;99.90;;;;;;4837877;29;20505;-80
2021/06/15 01:57:31;;;;;;;7.50;6.90;;;16.70;99.90;;;;;;4838336;29;20457;-79
2021/06/15 02:00:01;;;;;;;8.00;6.13;;;16.70;99.90;;;;;;4836726;29;20482;-79
2021/06/15 02:02:30;;;;;;;6.43;5.40;;;16.60;99.90;;;;;;4837306;29;20469;-80
2021/06/15 02:04:57;;;;;;;5.93;5.43;;;16.60;99.90;;;;;;4838101;29;20456;-80
2021/06/15 02:07:28;;;;;;;5.70;5.20;;;16.60;99.90;;;;;;4837533;29;20464;-80
2021/06/15 02:09:58;;;;;;;6.67;6.07;;;16.60;99.90;;;;;;4837023;29;20489;-80
2021/06/15 02:12:28;;;;;;;6.17;5.67;;;16.50;99.90;;;;;;4838023;29;20457;-80
2021/06/15 02:14:56;;;;;;;4.77;4.37;;;16.50;99.90;;;;;;4837856;29;20495;-79
2021/06/15 02:17:26;;;;;;;4.90;4.60;;;16.50;99.90;;;;;;4838374;29;20838;-79
2021/06/15 02:19:55;;;;;;;6.40;5.90;;;16.40;99.90;;;;;;4837284;29;20487;-80
2021/06/15 02:22:24;;;;;;;6.10;5.60;;;16.40;99.90;;;;;;4837631;29;20489;-80
2021/06/15 02:24:55;;;;;;;6.90;6.17;;;16.40;99.90;;;;;;4837703;29;20456;-78
2021/06/15 02:27:24;;;;;;;6.80;6.13;;;16.30;99.90;;;;;;4837670;29;20468;-80
2021/06/15 02:29:53;;;;;;;6.87;6.03;;;16.30;99.90;;;;;;4837806;29;20480;-79
2021/06/15 02:32:25;;;;;;;6.50;5.90;;;16.30;99.90;;;;;;4837754;29;20468;-79
2021/06/15 02:34:56;;;;;;;7.63;6.93;;;16.30;99.90;;;;;;4837570;29;20495;-80
2021/06/15 02:37:27;;;;;;;7.50;6.80;;;16.30;99.90;;;;;;4837643;29;20475;-80
2021/06/15 02:39:56;;;;;;;6.87;5.27;;;16.20;99.90;;;;;;4837377;29;20477;-80
2021/06/15 02:42:25;;;;;;;6.27;5.70;;;16.20;99.90;;;;;;4837095;29;20467;-80
2021/06/15 02:44:56;;;;;;;7.57;6.43;;;16.20;99.90;;;;;;4837840;29;20460;-80
2021/06/15 02:47:23;;;;;;;6.33;5.73;;;16.20;99.90;;;;;;4837010;29;20476;-80
2021/06/15 02:49:54;;;;;;;6.90;6.20;;;16.20;99.90;;;;;;4837412;29;20477;-80
2021/06/15 02:52:39;;;;;;;7.13;6.47;;;16.20;99.90;;;;;;4837373;29;20463;-80
2021/06/15 02:55:10;;;;;;;6.20;5.70;;;16.10;99.90;;;;;;4837059;29;20576;-80
2021/06/15 02:57:37;;;;;;;6.87;6.23;;;16.10;99.90;;;;;;4836956;29;20459;-79
2021/06/15 03:00:07;;;;;;;6.20;5.70;;;16.10;99.90;;;;;;4837319;29;20464;-79
2021/06/15 03:02:34;;;;;;;7.70;7.07;;;16.00;99.90;;;;;;4837115;29;20832;-79
2021/06/15 03:05:02;;;;;;;6.80;6.20;;;16.00;99.90;;;;;;4837533;29;20461;-79
2021/06/15 03:07:34;;;;;;;9.10;6.60;;;16.00;99.90;;;;;;4837090;29;20461;-80
2021/06/15 03:10:02;;;;;;;7.33;5.93;;;15.90;99.90;;;;;;4836593;29;20479;-80
2021/06/15 03:12:34;;;;;;;7.03;6.40;;;15.90;99.90;;;;;;4838439;29;20493;-79
2021/06/15 03:15:05;;;;;;;6.33;5.73;;;15.90;99.90;;;;;;4839343;29;20503;-79
2021/06/15 03:17:34;;;;;;;11.10;6.70;;;15.90;99.90;;;;;;4840359;29;20848;-80
2021/06/15 03:20:05;;;;;;;6.63;6.03;;;15.90;99.90;;;;;;4840284;29;20551;-79
2021/06/15 03:22:46;;;;;;;5.97;5.57;;;15.90;99.90;;;;;;4840402;29;20455;-80
2021/06/15 03:25:18;;;;;;;7.17;6.67;;;15.90;99.90;;;;;;4841027;29;20520;-79
2021/06/15 03:27:52;;;;;;;6.97;6.30;;;15.90;99.90;;;;;;4840925;29;20455;-79
2021/06/15 03:30:21;;;;;;;6.73;5.63;;;15.90;99.90;;;;;;4840686;29;20462;-79
2021/06/15 03:32:53;;;;;;;6.97;6.17;;;15.80;99.90;;;;;;4839870;29;20462;-79
2021/06/15 03:35:22;;;;;;;6.70;6.17;;;15.80;99.90;;;;;;4840948;29;20498;-80
2021/06/15 03:37:52;;;;;;;6.70;6.10;;;15.80;99.90;;;;;;4840976;29;20531;-80
2021/06/15 03:40:22;;;;;;;6.93;6.33;;;15.80;99.90;;;;;;4839534;29;20465;-80
2021/06/15 03:42:51;;;;;;;6.50;6.00;;;15.80;99.90;;;;;;4839963;29;20469;-80
2021/06/15 03:45:18;;;;;;;7.53;6.50;;;15.80;99.90;;;;;;4840057;29;20460;-79
2021/06/15 03:47:48;;;;;;;6.23;5.63;;;15.80;99.90;;;;;;4839254;29;20470;-79
2021/06/15 03:50:16;;;;;;;6.60;6.00;;;15.80;99.90;;;;;;4838729;29;20881;-80
2021/06/15 03:52:44;;;;;;;6.13;5.53;;;15.80;99.90;;;;;;4836721;29;20945;-80
2021/06/15 03:55:14;;;;;;;6.83;6.33;;;15.80;99.90;;;;;;4837346;29;20501;-81
2021/06/15 03:57:43;;;;;;;5.97;5.47;;;15.80;99.90;;;;;;4837722;29;20538;-80
2021/06/15 04:00:12;;;;;;;6.23;5.63;;;15.80;99.90;;;;;;4834252;29;20542;-79
2021/06/15 04:02:42;;;;;;;8.90;7.33;;;15.80;99.90;;;;;;4831523;29;20441;-79
2021/06/15 04:05:10;;;;;;;8.17;6.50;;;15.80;99.90;;;;;;4832194;29;20451;-80
2021/06/15 04:07:38;;;;;;;6.87;6.30;;;15.80;99.90;;;;;;4837623;29;20885;-80
2021/06/15 04:10:07;;;;;;;7.90;7.20;;;15.90;99.90;;;;;;4837114;29;20488;-81
2021/06/15 04:12:36;;;;;;;7.97;5.67;;;15.80;99.90;;;;;;4837232;29;20499;-81
2021/06/15 04:15:04;;;;;;;7.80;7.00;;;15.90;99.90;;;;;;4837558;29;20501;-80
2021/06/15 04:17:37;;;;;;;6.80;6.20;;;15.90;99.90;;;;;;4837023;29;20475;-80
2021/06/15 04:20:06;;;;;;;7.80;6.40;;;15.90;99.90;;;;;;4836506;29;20488;-81
2021/06/15 04:22:36;;;;;;;7.90;7.13;;;15.90;99.90;;;;;;4836377;29;20461;-81
2021/06/15 04:25:05;;;;;;;9.30;6.60;;;16.00;99.90;;;;;;4835821;29;20486;-81
2021/06/15 04:27:34;;;;;;;7.53;6.83;;;16.00;99.90;;;;;;4837976;29;20459;-81
2021/06/15 04:30:02;;;;;;;12.73;7.60;;;16.00;99.90;;;;;;4836837;29;20510;-80
2021/06/15 04:32:34;;;;;;;7.90;7.20;;;16.10;99.90;;;;;;4837150;29;20845;-80
2021/06/15 04:35:05;;;;;;;8.07;6.93;;;16.10;99.90;;;;;;4836714;29;20491;-80
2021/06/15 04:37:34;;;;;;;7.77;7.07;;;16.20;99.90;;;;;;4836823;29;20470;-81
2021/06/15 04:40:10;;;;;;;8.23;7.43;;;16.20;99.90;;;;;;4836756;29;20485;-80
2021/06/15 04:42:44;;;;;;;8.33;7.53;;;16.30;99.90;;;;;;4836953;29;20468;-81
2021/06/15 04:45:13;;;;;;;7.37;6.67;;;16.30;99.90;;;;;;4836680;29;20465;-80
2021/06/15 04:47:46;;;;;;;7.20;6.53;;;16.40;99.90;;;;;;4836800;29;20456;-80
2021/06/15 04:50:19;;;;;;;9.00;8.10;;;16.50;99.90;;;;;;4836136;29;20453;-81
2021/06/15 04:52:50;;;;;;;8.40;7.63;;;16.50;99.90;;;;;;4836172;29;20830;-81
2021/06/15 04:55:21;;;;;;;9.07;8.27;;;16.60;99.90;;;;;;4836295;29;20496;-80
2021/06/15 04:57:48;;;;;;;9.23;8.43;;;16.60;99.90;;;;;;4836209;29;20469;-81
2021/06/15 05:00:21;;;;;;;9.57;8.63;;;16.70;99.90;;;;;;4835740;29;20465;-80
2021/06/15 05:02:49;;;;;;;8.60;7.90;;;16.80;99.90;;;;;;4835515;29;20460;-81
2021/06/15 05:05:17;;;;;;;8.43;7.73;;;16.90;99.90;;;;;;4836429;29;20452;-81
2021/06/15 05:07:44;;;;;;;7.20;6.43;;;16.90;99.90;;;;;;4835352;29;20464;-80
2021/06/15 05:10:13;;;;;;;7.40;6.83;;;17.00;99.90;;;;;;4833050;29;20471;-80
2021/06/15 05:12:43;;;;;;;6.90;6.20;;;17.10;99.90;;;;;;4833036;29;20449;-80
2021/06/15 05:15:12;;;;;;;7.33;6.33;;;17.10;99.90;;;;;;4833398;29;20497;-80
2021/06/15 05:17:41;;;;;;;7.10;6.40;;;17.20;99.90;;;;;;4833031;29;20991;-80
2021/06/15 05:20:10;;;;;;;8.13;7.43;;;17.30;99.90;;;;;;4835197;29;20484;-80
2021/06/15 05:22:44;;;;;;;7.63;6.17;;;17.40;99.90;;;;;;4835439;29;20464;-81
2021/06/15 05:25:15;;;;;;;7.43;6.70;;;17.50;99.90;;;;;;4836023;29;20461;-81
2021/06/15 05:27:42;;;;;;;8.17;7.47;;;17.60;99.90;;;;;;4835538;29;20470;-81
2021/06/15 05:30:12;;;;;;;6.77;6.17;;;17.70;99.90;;;;;;4836270;29;20466;-81
2021/06/15 05:32:40;;;;;;;8.43;5.90;;;17.80;99.90;;;;;;4835757;29;20458;-81
2021/06/15 05:35:08;;;;;;;5.40;5.00;;;17.90;99.90;;;;;;4835793;29;20534;-80
2021/06/15 05:37:35;;;;;;;6.67;6.07;;;18.00;99.90;;;;;;4836063;29;20469;-81
2021/06/15 05:40:02;;;;;;;6.90;5.83;;;18.10;99.90;;;;;;4835919;29;20557;-81
2021/06/15 05:42:29;;;;;;;6.80;6.20;;;18.20;99.90;;;;;;4835476;29;20466;-81
2021/06/15 05:44:56;;;;;;;6.93;6.33;;;18.40;99.90;;;;;;4834933;29;20462;-81
2021/06/15 05:47:22;;;;;;;6.63;6.03;;;18.50;99.90;;;;;;4835581;29;20466;-80
2021/06/15 05:49:51;;;;;;;5.70;5.40;;;18.60;99.90;;;;;;4835030;29;20485;-81
2021/06/15 05:52:19;;;;;;;8.37;6.07;;;18.70;99.90;;;;;;4834912;29;20486;-81
2021/06/15 05:54:46;;;;;;;5.40;5.00;;;18.80;99.90;;;;;;4835833;29;20506;-81
2021/06/15 05:57:13;;;;;;;7.03;5.00;;;18.90;99.90;;;;;;4835649;29;20470;-81
2021/06/15 05:59:40;;;;;;;7.00;4.97;;;19.10;99.90;;;;;;4835646;29;20862;-81
2021/06/15 06:02:07;;;;;;;6.20;5.70;;;19.20;99.90;;;;;;4835142;29;20592;-81
2021/06/15 06:04:36;;;;;;;5.13;4.60;;;19.30;99.90;;;;;;4834865;29;20491;-81
2021/06/15 06:09:53;;;;;;;5.50;5.10;;;19.50;99.50;;;;;;4819753;29;20500;-81
2021/06/15 06:12:20;;;;;;;5.83;5.43;;;19.60;99.50;;;;;;4836637;29;20535;-81
2021/06/15 06:14:46;;;;;;;5.40;4.90;;;19.70;99.20;;;;;;4836395;29;20527;-81
2021/06/15 06:17:13;;;;;;;5.77;5.27;;;19.80;98.90;;;;;;4836499;29;20965;-81
2021/06/15 06:19:40;;;;;;;6.37;5.97;;;20.00;98.70;;;;;;4835370;29;20479;-81
2021/06/15 06:22:08;;;;;;;6.47;5.97;;;20.10;98.40;;;;;;4835645;29;20962;-81
2021/06/15 06:24:35;;;;;;;4.90;4.60;;;20.20;98.40;;;;;;4836224;29;20448;-81
2021/06/15 06:27:02;;;;;;;4.97;4.47;;;20.20;98.20;;;;;;4834912;29;20467;-83
2021/06/15 06:29:29;;;;;;;6.87;6.17;;;20.30;98.00;;;;;;4832527;29;20486;-83
2021/06/15 06:31:55;;;;;;;6.60;5.63;;;20.50;99.00;;;;;;4830816;29;20480;-80
2021/06/15 06:34:22;;;;;;;6.00;5.40;;;20.60;98.80;;;;;;4834827;29;20519;-80
2021/06/15 06:36:49;;;;;;;5.90;5.40;;;20.70;98.40;;;;;;4840551;29;20454;-81
2021/06/15 06:39:17;;;;;;;6.27;5.63;;;20.70;98.50;;;;;;4837404;29;20495;-80
2021/06/15 06:41:44;;;;;;;6.40;5.80;;;20.80;98.70;;;;;;4836442;29;20455;-80
2021/06/15 06:44:11;;;;;;;5.53;5.03;;;20.90;99.10;;;;;;4837121;29;20458;-81
2021/06/15 06:46:37;;;;;;;7.80;5.17;;;21.00;98.60;;;;;;4830183;29;20464;-80
2021/06/15 06:49:04;;;;;;;6.10;5.70;;;21.10;98.90;;;;;;4832970;29;20491;-81
2021/06/15 06:51:31;;;;;;;6.60;5.17;;;21.10;98.90;;;;;;4833385;29;20462;-80
2021/06/15 06:54:00;;;;;;;8.67;6.57;;;21.20;98.90;;;;;;4832899;29;20465;-81
2021/06/15 06:56:29;;;;;;;5.93;5.53;;;21.30;99.10;;;;;;4832495;29;20501;-81
2021/06/15 06:58:56;;;;;;;7.80;5.67;;;21.40;98.40;;;;;;4831438;29;20481;-82
2021/06/15 07:01:24;;;;;;;11.70;5.63;;;21.50;97.80;;;;;;4830548;29;20455;-82
2021/06/15 07:03:51;;;;;;;6.50;5.20;;;21.50;97.90;;;;;;4831181;29;21029;-83
2021/06/15 07:06:18;;;;;;;6.73;5.60;;;21.60;97.30;;;;;;4831148;29;20979;-83
2021/06/15 07:08:45;;;;;;;11.23;6.03;;;21.70;97.20;;;;;;4830542;29;20485;-82
2021/06/15 07:11:12;;;;;;;10.83;6.23;;;21.70;97.50;;;;;;4830524;29;20481;-82
2021/06/15 07:13:40;;;;;;;7.70;7.00;;;21.80;97.60;;;;;;4831087;29;20458;-83
2021/06/15 07:16:08;;;;;;;10.70;5.93;;;21.90;97.60;;;;;;4830755;29;20495;-83
2021/06/15 07:18:36;;;;;;;6.90;6.23;;;22.00;97.30;;;;;;4830822;29;20489;-83
2021/06/15 07:21:03;;;;;;;7.60;6.37;;;22.00;97.50;;;;;;4830588;29;20465;-83
2021/06/15 07:23:30;;;;;;;8.07;6.37;;;22.20;97.80;;;;;;4830150;29;21015;-82
2021/06/15 07:25:57;;;;;;;7.10;6.00;;;22.20;97.00;;;;;;4828399;29;20455;-83
2021/06/15 07:28:23;;;;;;;7.00;6.17;;;22.30;96.60;;;;;;4831368;29;20523;-85
2021/06/15 07:30:52;;;;;;;7.50;6.00;;;22.30;96.60;;;;;;4831899;29;20949;-82
2021/06/15 07:33:18;;;;;;;8.47;6.57;;;22.40;96.50;;;;;;4836231;29;20470;-85
2021/06/15 07:35:45;;;;;;;8.40;5.67;;;22.50;96.60;;;;;;4850593;29;20490;-85
2021/06/15 07:38:12;;;;;;;7.40;5.63;;;22.60;95.90;;;;;;4844230;29;20862;-82
2021/06/15 07:40:39;;;;;;;6.73;5.73;;;22.60;96.20;;;;;;4834775;29;20476;-83
2021/06/15 07:43:06;;;;;;;6.43;5.20;;;22.70;96.40;;;;;;4831541;29;20475;-85
2021/06/15 07:45:35;;;;;;;9.23;6.60;;;22.70;95.80;;;;;;4833608;29;20460;-86
2021/06/15 07:48:07;;;;;;;9.30;6.70;;;22.80;95.60;;;;;;4833235;29;20462;-85
2021/06/15 07:50:34;;;;;;;7.00;5.50;;;22.90;95.90;;;;;;4832443;29;20462;-86
2021/06/15 07:53:01;;;;;;;6.83;5.50;;;23.00;95.60;;;;;;4831101;29;20453;-84
2021/06/15 07:55:28;;;;;;;4.93;4.53;;;23.00;94.90;;;;;;4833501;29;20491;-86
2021/06/15 07:57:55;;;;;;;5.60;4.77;;;23.10;95.40;;;;;;4832636;29;20473;-84
2021/06/15 08:00:22;;;;;;;6.60;4.50;;;23.10;95.80;;;;;;4832087;29;20474;-84
2021/06/15 08:02:50;;;;;;;9.80;6.13;;;23.30;95.60;;;;;;4832525;29;20463;-84
2021/06/15 08:05:18;;;;;;;8.37;4.80;;;23.40;94.40;;;;;;4833357;29;20459;-84
2021/06/15 08:07:49;;;;;;;5.47;4.70;;;23.40;94.10;;;;;;4832269;29;20989;-84
2021/06/15 08:10:18;;;;;;;5.90;5.23;;;23.60;93.70;;;;;;4832324;29;20942;-84
2021/06/15 08:12:45;;;;;;;5.23;4.70;;;23.60;92.80;;;;;;4832683;29;20463;-83
2021/06/15 08:15:12;;;;;;;6.20;4.73;;;23.70;92.50;;;;;;4831719;29;21027;-83
2021/06/15 08:17:39;;;;;;;6.33;4.67;;;23.70;92.90;;;;;;4832712;29;20471;-84
2021/06/15 08:20:08;;;;;;;4.30;4.00;;;23.80;93.20;;;;;;4832866;29;21000;-81
2021/06/15 08:22:36;;;;;;;4.80;4.33;;;23.90;92.90;;;;;;4842788;29;20456;-83
2021/06/15 08:25:05;;;;;;;6.00;5.00;;;24.00;92.70;;;;;;4843206;29;20460;-81
2021/06/15 08:27:34;;;;;;;7.70;4.63;;;24.10;93.00;;;;;;4835079;29;20490;-85
2021/06/15 08:30:01;;;;;;;6.50;4.43;;;24.20;92.60;;;;;;4831538;29;20490;-86
2021/06/15 08:32:27;;;;;;;5.50;4.40;;;24.30;92.70;;;;;;4830188;29;20817;-81
2021/06/15 08:34:54;;;;;;;4.40;4.10;;;24.40;92.20;;;;;;4829107;29;20478;-82
2021/06/15 08:37:21;;;;;;;6.60;5.40;;;24.50;92.40;;;;;;4829151;29;20460;-83
2021/06/15 08:39:49;;;;;;;7.17;4.90;;;24.60;92.50;;;;;;4849815;29;20481;-82
2021/06/15 08:42:16;;;;;;;4.00;3.70;;;24.60;92.50;;;;;;4866339;29;20465;-81
2021/06/15 08:44:44;;;;;;;7.97;5.20;;;24.80;92.60;;;;;;4865293;29;20464;-80
2021/06/15 08:47:14;;;;;;;6.20;4.80;;;24.90;92.20;;;;;;4864868;29;20457;-80
2021/06/15 08:49:41;;;;;;;5.27;4.83;;;25.00;91.20;;;;;;4866921;29;20513;-83
2021/06/15 08:52:09;;;;;;;6.53;6.10;;;25.20;91.80;;;;;;4867098;29;20472;-83
2021/06/15 08:54:37;;;;;;;4.53;4.13;;;25.30;91.50;;;;;;4867951;29;20463;-82
2021/06/15 08:57:07;;;;;;;4.90;4.40;;;25.30;91.40;;;;;;4866643;29;20529;-83
2021/06/15 08:59:34;;;;;;;4.90;3.07;;;25.40;88.40;;;;;;4865981;29;20470;-82
2021/06/15 09:02:05;;;;;;;4.63;4.10;;;25.40;84.80;;;;;;4866041;29;20462;-83
2021/06/15 09:04:33;;;;;;;4.20;3.90;;;25.50;83.40;;;;;;4866231;29;20618;-84
2021/06/15 09:07:00;;;;;;;4.67;4.37;;;25.60;84.40;;;;;;4866336;29;20455;-84
2021/06/15 09:09:38;;;;;;;7.27;4.70;;;25.60;83.00;;;;;;4867726;29;20507;-84
2021/06/15 09:12:08;;;;;;;5.30;4.20;;;25.60;82.00;;;;;;4866686;29;20832;-84
2021/06/15 09:14:46;;;;;;;4.50;4.20;;;25.70;81.30;;;;;;4866349;29;20475;-83
2021/06/15 09:17:15;;;;;;;5.00;3.33;;;25.70;79.50;;;;;;4867482;29;20571;-83
2021/06/15 09:19:43;;;;;;;3.93;3.43;;;25.80;79.30;;;;;;4867002;29;20509;-83
2021/06/15 09:22:24;;;;;;;4.50;4.20;;;26.00;79.20;;;;;;4865413;29;20465;-83
2021/06/15 09:24:51;;;;;;;4.73;4.43;;;26.10;76.70;;;;;;4867244;29;20494;-83
2021/06/15 09:27:20;;;;;;;4.10;3.63;;;26.20;76.40;;;;;;4867703;29;20461;-84
2021/06/15 09:29:50;;;;;;;5.03;3.90;;;26.20;75.80;;;;;;4865755;29;20490;-82
2021/06/15 09:32:19;;;;;;;4.10;3.80;;;26.20;74.40;;;;;;4864082;29;20989;-83
2021/06/15 09:34:51;;;;;;;10.20;4.60;;;26.30;75.30;;;;;;4865777;29;20464;-83
2021/06/15 09:37:27;;;;;;;4.70;4.27;;;26.40;75.70;;;;;;4865462;29;20507;-81
2021/06/15 09:39:54;;;;;;;4.20;3.80;;;26.50;74.10;;;;;;4866000;29;20540;-84
2021/06/15 09:42:22;;;;;;;6.53;4.33;;;26.50;72.30;;;;;;4866049;29;20467;-82
2021/06/15 09:44:49;;;;;;;4.20;3.90;;;26.60;73.70;;;;;;4867450;29;20460;-84
2021/06/15 09:47:15;;;;;;;3.67;3.37;;;26.80;74.20;;;;;;4868207;29;20463;-83
2021/06/15 09:49:44;;;;;;;4.30;3.90;;;26.90;72.10;;;;;;4867125;29;20474;-82
2021/06/15 09:52:14;;;;;;;3.93;3.63;;;27.00;71.40;;;;;;4867750;29;20462;-83
2021/06/15 09:54:45;;;;;;;6.87;4.80;;;27.10;72.10;;;;;;4868804;29;21066;-84
2021/06/15 09:57:25;;;;;;;3.90;3.60;;;27.30;71.90;;;;;;4866769;29;20496;-84
2021/06/15 10:00:02;;;;;;;4.27;3.90;;;27.50;71.90;;;;;;4866267;29;20571;-83
2021/06/15 10:02:29;;;;;;;5.97;4.53;;;27.60;71.00;;;;;;4866720;29;20439;-83
2021/06/15 10:04:56;;;;;;;4.27;3.97;;;27.90;72.90;;;;;;4865929;29;20463;-83
2021/06/15 10:07:27;;;;;;;4.50;4.10;;;28.00;66.20;;;;;;4865325;29;20460;-82
2021/06/15 10:09:55;;;;;;;4.57;3.83;;;28.00;68.10;;;;;;4865340;29;20479;-83
2021/06/15 10:12:22;;;;;;;4.17;3.97;;;28.10;66.40;;;;;;4865276;29;20474;-83
2021/06/15 10:14:52;;;;;;;4.57;3.93;;;28.30;66.60;;;;;;4866595;29;20462;-82
2021/06/15 10:17:19;;;;;;;3.60;3.40;;;28.40;65.30;;;;;;4867071;29;20500;-84
2021/06/15 10:19:46;;;;;;;4.63;3.60;;;28.40;62.70;;;;;;4866756;29;20479;-83
2021/06/15 10:22:14;;;;;;;4.40;4.10;;;28.30;61.20;;;;;;4863863;29;20478;-81
2021/06/15 10:24:41;;;;;;;4.10;3.77;;;28.50;62.60;;;;;;4863563;29;20464;-84
2021/06/15 10:27:16;;;;;;;3.30;3.10;;;28.50;60.00;;;;;;4861958;29;20458;-85
2021/06/15 10:29:49;;;;;;;4.00;3.70;;;28.50;58.90;;;;;;4860967;29;20983;-84
2021/06/15 10:32:19;;;;;;;5.80;4.13;;;28.50;60.30;;;;;;4863408;29;20461;-85
2021/06/15 10:34:47;;;;;;;3.70;3.40;;;28.50;58.80;;;;;;4861603;29;20465;-85
2021/06/15 10:37:42;;;;;;;3.13;2.93;;;28.40;59.10;;;;;;4861362;29;20502;-85
2021/06/15 10:40:40;;;;;;;3.77;3.57;;;28.50;58.40;;;;;;4861740;29;20490;-85
2021/06/15 10:43:17;;;;;;;3.60;3.27;;;28.50;57.10;;;;;;4861002;29;20455;-85
2021/06/15 10:45:46;;;;;;;3.23;3.03;;;28.60;59.40;;;;;;4861179;29;20472;-84
2021/06/15 10:48:40;;;;;;;4.63;4.33;;;28.70;58.80;;;;;;4860374;29;20586;-85
2021/06/15 10:51:27;;;;;;;4.40;4.00;;;28.90;58.80;;;;;;4863456;29;20457;-85
2021/06/15 10:54:01;;;;;;;4.17;3.70;;;29.10;58.10;;;;;;4860167;29;20463;-85
2021/06/15 10:56:31;;;;;;;3.97;3.63;;;29.30;57.50;;;;;;4861500;29;20494;-84
2021/06/15 10:59:07;;;;;;;5.33;3.63;;;29.50;57.80;;;;;;4861357;29;20482;-84
2021/06/15 11:01:40;;;;;;;3.93;3.63;;;29.80;58.10;;;;;;4862145;29;20955;-85
2021/06/15 11:04:09;;;;;;;4.17;3.87;;;29.90;55.80;;;;;;4861828;29;20825;-85
2021/06/15 11:06:45;;;;;;;3.80;3.60;;;30.00;54.60;;;;;;4860793;29;20465;-84
2021/06/15 11:09:15;;;;;;;3.70;3.50;;;30.10;55.70;;;;;;4860617;29;20484;-83
2021/06/15 11:11:44;;;;;;;5.10;3.97;;;30.30;54.00;;;;;;4860706;29;20840;-84
2021/06/15 11:18:25;;;;;;;5.80;3.77;;;31.10;52.00;;;;;;4824589;29;21150;-84
2021/06/15 11:20:54;;;;;;;3.70;3.50;;;31.80;52.60;;;;;;4816897;29;20543;-82
2021/06/15 11:23:28;;;;;;;3.43;3.17;;;32.40;50.70;;;;;;4845676;29;20477;-84
2021/06/15 11:26:05;;;;;;;3.80;3.60;;;32.70;51.00;;;;;;4845726;29;20468;-83
2021/06/15 11:29:35;;;;;;;4.20;3.30;;;33.00;53.10;;;;;;4843323;29;20542;-85
2021/06/15 11:32:23;;;;;;;3.03;2.83;;;33.60;47.80;;;;;;4845641;29;20473;-85
2021/06/15 11:35:17;;;;;;;3.13;2.80;;;33.80;46.30;;;;;;4848694;29;20501;-83
2021/06/15 11:37:50;;;;;;;3.23;3.03;;;34.10;46.30;;;;;;4849055;29;20864;-84
2021/06/15 11:40:27;;;;;;;3.73;3.43;;;34.20;44.40;;;;;;4849440;29;20881;-83
2021/06/15 11:42:58;;;;;;;3.77;3.50;;;34.40;44.70;;;;;;4848858;29;20981;-83
2021/06/15 11:45:34;;;;;;;3.00;2.80;;;34.70;42.30;;;;;;4848693;29;20446;-83
2021/06/15 11:48:32;;;;;;;3.33;3.13;;;35.00;39.20;;;;;;4848490;29;20824;-84
2021/06/15 11:51:01;;;;;;;3.00;2.80;;;35.10;38.70;;;;;;4849733;29;20473;-82
2021/06/15 11:53:31;;;;;;;3.57;3.37;;;35.20;38.80;;;;;;4849128;29;20501;-83
2021/06/15 11:56:01;;;;;;;3.17;2.97;;;35.30;40.20;;;;;;4848683;29;20960;-83
2021/06/15 11:58:30;;;;;;;3.47;3.17;;;35.20;41.50;;;;;;4848544;29;20478;-84
2021/06/15 12:00:59;;;;;;;2.80;2.60;;;35.50;40.00;;;;;;4848720;29;20468;-84
2021/06/15 12:03:28;;;;;;;2.97;2.77;;;36.00;38.90;;;;;;4848978;29;20458;-84
2021/06/15 12:05:57;;;;;;;3.73;3.43;;;36.30;37.00;;;;;;4852139;29;20732;-83
2021/06/15 12:08:30;;;;;;;3.40;3.23;;;36.40;38.60;;;;;;4853048;29;20481;-83
2021/06/15 12:10:58;;;;;;;4.27;3.97;;;36.80;39.80;;;;;;4853104;29;20458;-83
2021/06/15 12:13:25;;;;;;;3.93;3.17;;;37.30;37.70;;;;;;4853518;29;20470;-84
2021/06/15 12:15:54;;;;;;;4.00;3.60;;;37.60;36.90;;;;;;4855524;29;20463;-83
2021/06/15 12:18:38;;;;;;;3.53;3.33;;;37.60;35.30;;;;;;4854063;29;20574;-83
2021/06/15 12:21:08;;;;;;;4.30;3.30;;;37.60;35.30;;;;;;4856502;29;20464;-82
2021/06/15 12:23:42;;;;;;;3.70;3.50;;;37.60;34.70;;;;;;4860098;29;20466;-81
2021/06/15 12:26:18;;;;;;;3.37;3.07;;;37.60;34.00;;;;;;4850402;29;20451;-84
2021/06/15 12:28:47;;;;;;;2.90;2.70;;;37.80;33.40;;;;;;4848181;29;20481;-84
2021/06/15 12:31:16;;;;;;;3.60;3.30;;;38.20;32.60;;;;;;4848310;29;20458;-83
2021/06/15 12:33:45;;;;;;;3.23;2.97;;;38.90;32.50;;;;;;4848473;29;20465;-84
2021/06/15 12:36:14;;;;;;;3.13;2.93;;;39.20;30.70;;;;;;4848656;29;20459;-82
2021/06/15 12:38:43;;;;;;;4.40;3.57;;;39.10;30.80;;;;;;4848177;29;20494;-84
2021/06/15 12:41:12;;;;;;;2.90;2.70;;;38.90;31.80;;;;;;4848823;29;20454;-84
2021/06/15 12:43:40;;;;;;;2.97;2.77;;;39.20;31.60;;;;;;4848344;29;20458;-84
2021/06/15 12:46:15;;;;;;;2.63;2.53;;;39.50;31.50;;;;;;4847826;29;20470;-84
2021/06/15 12:48:48;;;;;;;2.73;2.53;;;40.20;30.20;;;;;;4848864;29;20481;-84
2021/06/15 12:51:16;;;;;;;3.40;3.20;;;40.70;30.00;;;;;;4848715;29;20995;-84
2021/06/15 12:53:45;;;;;;;3.00;2.70;;;40.40;29.50;;;;;;4848244;29;20505;-84
2021/06/15 12:56:18;;;;;;;3.30;3.03;;;40.80;30.00;;;;;;4848212;29;20513;-83
2021/06/15 12:58:46;;;;;;;3.60;3.40;;;40.50;29.20;;;;;;4848617;29;20485;-84
2021/06/15 13:01:16;;;;;;;4.23;3.87;;;39.90;29.50;;;;;;4848368;29;21040;-84
2021/06/15 13:03:48;;;;;;;3.23;2.93;;;39.60;30.80;;;;;;4848434;29;20462;-84
2021/06/15 13:06:28;;;;;;;3.53;3.33;;;39.30;30.90;;;;;;4847998;29;20553;-84
2021/06/15 13:08:56;;;;;;;4.00;3.60;;;39.20;30.70;;;;;;4848891;29;20482;-84